createdAt,value
2019-02-24T00:02:13.864Z,87.90
2019-02-24T00:04:48.464Z,87.60
2019-02-24T00:07:22.525Z,88.00
2019-02-24T00:09:55.918Z,88.00
2019-02-24T00:12:31.762Z,89.20
2019-02-24T00:15:09.539Z,88.20
2019-02-24T00:17:44.665Z,87.10
2019-02-24T00:20:18.313Z,87.30
2019-02-24T00:22:52.365Z,87.70
2019-02-24T00:25:25.884Z,87.10
2019-02-24T00:28:06.933Z,87.40
2019-02-24T00:30:34.827Z,86.40
2019-02-24T00:33:09.208Z,85.70
2019-02-24T00:35:42.433Z,85.20
2019-02-24T00:38:18.569Z,86.40
2019-02-24T00:40:54.015Z,86.20
2019-02-24T00:43:27.566Z,87.40
2019-02-24T00:46:02.420Z,86.10
2019-02-24T00:48:36.032Z,86.60
2019-02-24T00:51:10.264Z,85.70
2019-02-24T00:53:43.569Z,87.20
2019-02-24T00:56:18.211Z,87.50
2019-02-24T00:58:52.313Z,85.50
2019-02-24T01:01:25.719Z,85.70
2019-02-24T01:03:59.217Z,84.20
2019-02-24T01:06:33.134Z,85.20
2019-02-24T01:09:07.669Z,84.60
2019-02-24T01:11:41.611Z,83.50
2019-02-24T01:14:16.818Z,82.10
2019-02-24T01:16:50.520Z,81.70
2019-02-24T01:19:24.109Z,79.70
2019-02-24T01:21:58.518Z,80.10
2019-02-24T01:24:32.619Z,78.50
2019-02-24T01:27:06.968Z,79.80
2019-02-24T01:29:40.771Z,79.20
2019-02-24T01:32:14.132Z,79.50
2019-02-24T01:34:47.998Z,79.10
2019-02-24T01:37:21.669Z,78.70
2019-02-24T01:39:57.556Z,78.10
2019-02-24T01:42:31.040Z,78.40
2019-02-24T01:45:04.478Z,77.80
2019-02-24T01:47:37.981Z,77.70
2019-02-24T01:50:11.731Z,77.50
2019-02-24T01:52:45.761Z,77.90
2019-02-24T01:55:19.064Z,78.80
2019-02-24T01:57:52.765Z,77.90
2019-02-24T02:00:26.369Z,78.00
2019-02-24T02:02:59.825Z,78.70
2019-02-24T02:05:33.569Z,78.30
2019-02-24T02:08:07.359Z,78.10
2019-02-24T02:10:40.715Z,78.20
2019-02-24T02:13:14.123Z,76.70
2019-02-24T02:15:48.226Z,76.80
2019-02-24T02:18:21.818Z,75.80
2019-02-24T02:20:55.464Z,75.70
2019-02-24T02:23:30.061Z,75.40
2019-02-24T02:26:05.124Z,74.80
2019-02-24T02:28:43.922Z,73.70
2019-02-24T02:31:17.359Z,74.20
2019-02-24T02:33:52.565Z,74.00
2019-02-24T02:36:26.140Z,73.90
2019-02-24T02:39:00.263Z,73.70
2019-02-24T02:41:35.269Z,73.20
2019-02-24T02:44:08.527Z,73.20
2019-02-24T02:46:41.875Z,73.50
2019-02-24T02:49:15.233Z,73.40
2019-02-24T02:52:04.852Z,72.90
2019-02-24T02:54:38.237Z,73.40
2019-02-24T02:57:12.132Z,73.20
2019-02-24T02:59:46.418Z,74.00
2019-02-24T03:02:24.323Z,72.90
2019-02-24T03:04:55.876Z,72.30
2019-02-24T03:07:31.561Z,72.10
2019-02-24T03:10:05.698Z,72.90
2019-02-24T03:12:40.287Z,73.50
2019-02-24T03:15:14.034Z,73.40
2019-02-24T03:17:47.436Z,73.90
2019-02-24T03:20:20.746Z,73.20
2019-02-24T03:22:54.108Z,73.70
2019-02-24T03:25:27.361Z,73.50
2019-02-24T03:28:01.740Z,73.50
2019-02-24T03:30:35.653Z,72.80
2019-02-24T03:33:09.733Z,73.30
2019-02-24T03:35:43.397Z,74.50
2019-02-24T03:38:16.854Z,74.20
2019-02-24T03:40:50.167Z,74.90
2019-02-24T03:43:23.516Z,73.80
2019-02-24T03:45:57.141Z,73.80
2019-02-24T03:48:30.588Z,73.50
2019-02-24T03:51:04.116Z,74.20
2019-02-24T03:53:37.484Z,73.70
2019-02-24T03:56:11.168Z,73.70
2019-02-24T03:58:44.636Z,73.70
2019-02-24T04:01:17.972Z,74.30
2019-02-24T04:03:52.139Z,73.80
2019-02-24T04:06:25.412Z,73.30
2019-02-24T04:09:00.269Z,73.30
2019-02-24T04:11:34.840Z,73.50
2019-02-24T04:14:08.644Z,73.00
2019-02-24T04:16:42.283Z,73.70
2019-02-24T04:19:15.513Z,73.50
2019-02-24T04:21:48.787Z,73.70
2019-02-24T04:24:21.963Z,73.90
2019-02-24T04:26:55.399Z,74.10
2019-02-24T04:29:29.166Z,73.80
2019-02-24T04:32:04.123Z,73.00
2019-02-24T04:34:37.282Z,73.00
2019-02-24T04:37:11.824Z,73.30
2019-02-24T04:39:45.517Z,74.30
2019-02-24T04:42:19.074Z,73.90
2019-02-24T04:44:52.708Z,72.60
2019-02-24T04:47:26.358Z,72.60
2019-02-24T04:50:01.367Z,72.70
2019-02-24T04:52:36.586Z,72.50
2019-02-24T04:55:10.151Z,72.60
2019-02-24T04:57:44.214Z,72.30
2019-02-24T05:00:19.539Z,72.30
2019-02-24T05:02:53.165Z,72.40
2019-02-24T05:05:26.750Z,72.20
2019-02-24T05:08:00.014Z,72.30
2019-02-24T05:10:33.415Z,73.20
2019-02-24T05:13:08.311Z,73.70
2019-02-24T05:15:41.690Z,73.90
2019-02-24T05:18:16.958Z,74.10
2019-02-24T05:20:50.198Z,73.80
2019-02-24T05:23:23.612Z,73.80
2019-02-24T05:25:57.777Z,74.20
2019-02-24T05:28:31.124Z,74.30
2019-02-24T05:31:04.647Z,73.80
2019-02-24T05:33:39.869Z,73.90
2019-02-24T05:36:15.417Z,74.70
2019-02-24T05:38:48.529Z,74.80
2019-02-24T05:41:21.866Z,74.40
2019-02-24T05:43:55.444Z,74.10
2019-02-24T05:46:28.965Z,73.70
2019-02-24T05:49:02.535Z,73.90
2019-02-24T05:51:35.804Z,74.20
2019-02-24T05:54:09.617Z,74.20
2019-02-24T05:56:42.915Z,74.30
2019-02-24T05:59:16.383Z,73.80
2019-02-24T06:01:50.124Z,73.70
2019-02-24T06:04:24.084Z,73.20
2019-02-24T06:06:57.387Z,73.50
2019-02-24T06:09:32.365Z,73.90
2019-02-24T06:12:05.670Z,74.10
2019-02-24T06:14:40.183Z,73.50
2019-02-24T06:17:13.578Z,73.50
2019-02-24T06:19:47.373Z,73.30
2019-02-24T06:22:20.660Z,73.80
2019-02-24T06:24:54.666Z,73.30
2019-02-24T06:27:28.810Z,73.50
2019-02-24T06:30:05.754Z,73.40
2019-02-24T06:32:43.810Z,73.30
2019-02-24T06:35:17.416Z,72.80
2019-02-24T06:37:51.920Z,73.20
2019-02-24T06:40:25.332Z,72.50
2019-02-24T06:42:58.585Z,72.70
2019-02-24T06:45:32.287Z,73.10
2019-02-24T06:48:05.536Z,72.60
2019-02-24T06:50:40.532Z,71.80
2019-02-24T06:53:13.964Z,71.90
2019-02-24T06:55:48.235Z,72.30
2019-02-24T06:58:21.824Z,71.70
2019-02-24T07:00:55.669Z,71.80
2019-02-24T07:03:29.070Z,71.40
2019-02-24T07:06:03.467Z,71.20
2019-02-24T07:08:37.136Z,70.70
2019-02-24T07:11:10.969Z,71.00
2019-02-24T07:13:44.255Z,71.00
2019-02-24T07:16:19.576Z,70.30
2019-02-24T07:18:53.166Z,70.20
2019-02-24T07:21:29.210Z,70.10
2019-02-24T07:24:02.725Z,70.10
2019-02-24T07:26:35.942Z,69.50
2019-02-24T07:29:09.586Z,69.80
2019-02-24T07:31:44.626Z,69.80
2019-02-24T07:34:18.761Z,69.60
2019-02-24T07:36:52.289Z,69.30
2019-02-24T07:39:26.113Z,68.90
2019-02-24T07:41:59.287Z,69.00
2019-02-24T07:44:32.618Z,69.70
2019-02-24T07:47:05.906Z,68.50
2019-02-24T07:49:39.209Z,69.10
2019-02-24T07:52:12.488Z,69.20
2019-02-24T07:54:45.811Z,68.90
2019-02-24T07:57:19.200Z,68.90
2019-02-24T07:59:52.439Z,68.40
2019-02-24T08:02:25.667Z,68.40
2019-02-24T08:04:58.972Z,68.80
2019-02-24T08:07:32.281Z,68.20
2019-02-24T08:10:07.595Z,68.50
2019-02-24T08:12:40.768Z,68.10
2019-02-24T08:15:15.376Z,68.20
2019-02-24T08:17:48.762Z,68.60
2019-02-24T08:20:22.071Z,67.80
2019-02-24T08:22:55.444Z,68.50
2019-02-24T08:25:28.766Z,68.30
2019-02-24T08:28:01.945Z,68.00
2019-02-24T08:30:41.477Z,67.80
2019-02-24T08:33:10.369Z,67.50
2019-02-24T08:35:45.012Z,67.70
2019-02-24T08:38:18.204Z,67.00
2019-02-24T08:40:51.408Z,67.50
2019-02-24T08:43:24.740Z,66.80
2019-02-24T08:45:58.054Z,67.10
2019-02-24T08:48:31.251Z,66.40
2019-02-24T08:51:04.598Z,66.60
2019-02-24T08:53:37.868Z,66.60
2019-02-24T08:56:11.289Z,66.60
2019-02-24T08:58:44.698Z,66.60
2019-02-24T09:01:18.099Z,67.40
2019-02-24T09:03:51.584Z,66.50
2019-02-24T09:06:24.822Z,67.00
2019-02-24T09:08:58.169Z,67.10
2019-02-24T09:11:31.501Z,67.20
2019-02-24T09:14:04.764Z,67.70
2019-02-24T09:16:39.143Z,67.60
2019-02-24T09:19:13.307Z,67.70
2019-02-24T09:21:47.727Z,67.80
2019-02-24T09:24:21.119Z,68.00
2019-02-24T09:26:54.558Z,67.10
2019-02-24T09:29:27.803Z,67.20
2019-02-24T09:32:01.120Z,67.20
2019-02-24T09:34:34.357Z,66.90
2019-02-24T09:37:08.248Z,66.60
2019-02-24T09:39:41.605Z,66.10
2019-02-24T09:42:14.918Z,66.10
2019-02-24T09:44:48.319Z,65.80
2019-02-24T09:47:22.011Z,65.60
2019-02-24T09:49:55.365Z,65.10
2019-02-24T09:52:28.687Z,64.30
2019-02-24T09:55:01.946Z,64.80
2019-02-24T09:57:37.125Z,65.10
2019-02-24T10:00:15.601Z,65.10
2019-02-24T10:02:48.800Z,65.50
2019-02-24T10:05:21.855Z,65.70
2019-02-24T10:07:55.144Z,66.30
2019-02-24T10:10:28.342Z,66.70
2019-02-24T10:13:01.540Z,66.50
2019-02-24T10:15:35.782Z,66.40
2019-02-24T10:18:09.083Z,66.50
2019-02-24T10:20:42.250Z,66.10
2019-02-24T10:23:15.477Z,66.50
2019-02-24T10:25:48.645Z,67.20
2019-02-24T10:28:21.790Z,66.50
2019-02-24T10:30:54.960Z,66.70
2019-02-24T10:33:28.183Z,66.70
2019-02-24T10:36:01.313Z,67.00
2019-02-24T10:38:34.621Z,66.60
2019-02-24T10:41:07.758Z,67.10
2019-02-24T10:43:40.937Z,66.80
2019-02-24T10:46:14.113Z,67.00
2019-02-24T10:48:47.283Z,66.40
2019-02-24T10:51:20.344Z,67.10
2019-02-24T10:53:53.523Z,66.70
2019-02-24T10:56:26.707Z,66.80
2019-02-24T10:58:59.877Z,67.30
2019-02-24T11:01:33.071Z,67.10
2019-02-24T11:04:07.629Z,67.50
2019-02-24T11:06:40.764Z,67.50
2019-02-24T11:09:14.168Z,67.50
2019-02-24T11:11:47.317Z,67.30
2019-02-24T11:14:20.418Z,67.90
2019-02-24T11:16:53.594Z,67.60
2019-02-24T11:19:26.853Z,67.10
2019-02-24T11:22:00.144Z,66.90
2019-02-24T11:24:33.376Z,65.80
2019-02-24T11:27:06.654Z,65.60
2019-02-24T11:29:39.924Z,66.20
2019-02-24T11:32:13.188Z,65.70
2019-02-24T11:34:47.711Z,65.00
2019-02-24T11:37:22.979Z,65.40
2019-02-24T11:39:56.986Z,64.80
2019-02-24T11:42:30.096Z,63.30
2019-02-24T11:45:04.793Z,62.80
2019-02-24T11:47:37.980Z,62.00
2019-02-24T11:50:13.013Z,61.40
2019-02-24T11:52:46.280Z,61.50
2019-02-24T11:55:19.391Z,61.20
2019-02-24T11:57:52.487Z,60.20
2019-02-24T12:00:25.642Z,61.30
2019-02-24T12:02:58.898Z,61.10
2019-02-24T12:05:32.174Z,61.00
2019-02-24T12:08:06.620Z,59.00
2019-02-24T12:10:39.868Z,58.90
2019-02-24T12:13:13.169Z,59.20
2019-02-24T12:15:46.316Z,59.90
2019-02-24T12:18:19.492Z,60.30
2019-02-24T12:20:52.714Z,59.10
2019-02-24T12:23:27.195Z,59.10
2019-02-24T12:26:00.468Z,58.90
2019-02-24T12:28:33.733Z,58.90
2019-02-24T12:31:06.861Z,58.40
2019-02-24T12:33:40.048Z,57.80
2019-02-24T12:36:14.225Z,58.10
2019-02-24T12:38:47.516Z,57.20
2019-02-24T12:41:20.742Z,57.20
2019-02-24T12:43:53.988Z,57.70
2019-02-24T12:46:28.285Z,57.30
2019-02-24T12:49:01.545Z,56.60
2019-02-24T12:51:34.774Z,55.10
2019-02-24T12:54:12.549Z,55.00
2019-02-24T12:56:57.868Z,55.10
2019-02-24T12:59:31.619Z,54.10
2019-02-24T13:02:05.890Z,52.70
2019-02-24T13:04:39.294Z,52.50
2019-02-24T13:07:13.812Z,52.10
2019-02-24T13:09:49.937Z,51.60
2019-02-24T13:12:23.144Z,50.90
2019-02-24T13:14:56.409Z,48.60
2019-02-24T13:17:29.802Z,47.30
2019-02-24T13:20:05.264Z,48.50
2019-02-24T13:22:40.233Z,48.20
2019-02-24T13:25:16.544Z,47.80
2019-02-24T13:27:49.792Z,47.40
2019-02-24T13:30:23.098Z,47.20
2019-02-24T13:32:56.292Z,47.30
2019-02-24T13:35:29.589Z,47.70
2019-02-24T13:38:02.869Z,47.40
2019-02-24T13:40:36.196Z,47.30
2019-02-24T13:43:09.708Z,47.50
2019-02-24T13:45:43.051Z,48.10
2019-02-24T13:48:16.311Z,48.00
2019-02-24T13:50:49.692Z,46.90
2019-02-24T13:53:22.949Z,46.80
2019-02-24T13:55:56.245Z,47.20
2019-02-24T13:58:29.514Z,47.30
2019-02-24T14:01:02.809Z,47.40
2019-02-24T14:03:36.070Z,45.70
2019-02-24T14:06:09.382Z,46.20
2019-02-24T14:08:42.672Z,44.00
2019-02-24T14:11:15.940Z,43.60
2019-02-24T14:13:50.228Z,43.50
2019-02-24T14:16:23.534Z,42.00
2019-02-24T14:18:56.778Z,42.90
2019-02-24T14:21:29.973Z,42.00
2019-02-24T14:24:03.127Z,42.00
2019-02-24T14:26:36.420Z,41.90
2019-02-24T14:29:09.677Z,42.00
2019-02-24T14:31:42.979Z,42.50
2019-02-24T14:34:16.249Z,43.50
2019-02-24T14:36:49.571Z,43.30
2019-02-24T14:39:22.997Z,44.20
2019-02-24T14:41:56.242Z,44.00
2019-02-24T14:44:29.530Z,44.40
2019-02-24T14:47:02.855Z,44.80
2019-02-24T14:49:36.284Z,46.10
2019-02-24T14:52:10.248Z,45.70
2019-02-24T14:54:43.534Z,45.60
2019-02-24T14:57:16.791Z,46.30
2019-02-24T14:59:51.389Z,45.90
2019-02-24T15:02:24.641Z,46.90
2019-02-24T15:04:57.805Z,46.80
2019-02-24T15:07:31.087Z,47.30
2019-02-24T15:10:05.414Z,47.50
2019-02-24T15:12:38.659Z,48.70
2019-02-24T15:15:20.852Z,48.10
2019-02-24T15:17:54.072Z,48.30
2019-02-24T15:20:28.532Z,49.20
2019-02-24T15:23:01.867Z,49.40
2019-02-24T15:25:35.292Z,48.80
2019-02-24T15:28:08.531Z,48.90
2019-02-24T15:30:42.075Z,49.10
2019-02-24T15:33:15.351Z,49.00
2019-02-24T15:35:49.595Z,50.00
2019-02-24T15:38:22.850Z,49.60
2019-02-24T15:40:57.179Z,49.50
2019-02-24T15:43:30.504Z,50.40
2019-02-24T15:46:03.802Z,49.90
2019-02-24T15:48:37.139Z,50.90
2019-02-24T15:51:11.741Z,51.10
2019-02-24T15:53:44.970Z,50.50
2019-02-24T15:56:18.213Z,50.90
2019-02-24T15:58:53.858Z,51.30
2019-02-24T16:01:27.197Z,51.30
2019-02-24T16:04:00.566Z,51.40
2019-02-24T16:06:37.219Z,51.30
2019-02-24T16:09:09.903Z,51.50
2019-02-24T16:11:43.139Z,52.00
2019-02-24T16:14:16.471Z,52.10
2019-02-24T16:16:50.061Z,52.20
2019-02-24T16:19:24.632Z,53.00
2019-02-24T16:21:57.977Z,53.20
2019-02-24T16:24:32.271Z,53.50
2019-02-24T16:27:06.699Z,54.50
2019-02-24T16:29:40.263Z,54.50
2019-02-24T16:32:13.752Z,54.90
2019-02-24T16:34:46.991Z,55.40
2019-02-24T16:37:20.250Z,55.40
2019-02-24T16:39:53.507Z,55.90
2019-02-24T16:45:15.083Z,56.60
2019-02-24T16:47:48.405Z,57.30
2019-02-24T16:50:25.933Z,58.10
2019-02-24T16:53:00.616Z,58.50
2019-02-24T16:55:35.055Z,58.30
2019-02-24T16:58:09.572Z,58.40
2019-02-24T17:00:42.899Z,60.20
2019-02-24T17:03:19.868Z,59.20
2019-02-24T17:05:51.201Z,58.90
2019-02-24T17:08:24.543Z,59.90
2019-02-24T17:11:07.100Z,59.30
2019-02-24T17:13:34.032Z,61.40
2019-02-24T17:16:07.404Z,60.80
2019-02-24T17:18:40.822Z,61.20
2019-02-24T17:21:14.114Z,60.50
2019-02-24T17:23:49.955Z,60.60
2019-02-24T17:26:23.432Z,60.50
2019-02-24T17:28:56.842Z,60.30
2019-02-24T17:31:31.224Z,60.60
2019-02-24T17:34:06.667Z,60.80
2019-02-24T17:36:41.301Z,60.70
2019-02-24T17:39:17.689Z,61.10
2019-02-24T17:41:52.110Z,60.80
2019-02-24T17:44:26.409Z,62.30
2019-02-24T17:47:00.513Z,61.50
2019-02-24T17:49:34.090Z,62.30
2019-02-24T17:52:07.334Z,62.10
2019-02-24T17:54:40.515Z,62.00
2019-02-24T17:57:13.774Z,62.50
2019-02-24T17:59:47.018Z,62.70
2019-02-24T18:02:20.211Z,62.50
2019-02-24T18:04:53.404Z,62.00
2019-02-24T18:07:26.655Z,62.70
2019-02-24T18:09:59.821Z,63.50
2019-02-24T18:12:33.062Z,63.90
2019-02-24T18:15:12.004Z,63.80
2019-02-24T18:17:46.523Z,64.40
2019-02-24T18:20:25.667Z,64.80
2019-02-24T18:22:58.954Z,64.30
2019-02-24T18:25:32.208Z,65.20
2019-02-24T18:28:05.280Z,65.00
2019-02-24T18:30:38.655Z,65.70
2019-02-24T18:33:13.129Z,65.30
2019-02-24T18:35:46.381Z,65.50
2019-02-24T18:38:19.517Z,65.10
2019-02-24T18:40:53.341Z,65.80
2019-02-24T18:43:27.351Z,65.60
2019-02-24T18:46:01.420Z,66.40
2019-02-24T18:48:35.904Z,66.40
2019-02-24T18:51:11.332Z,66.20
2019-02-24T18:53:45.669Z,66.60
2019-02-24T18:56:18.865Z,67.00
2019-02-24T18:58:52.111Z,67.00
2019-02-24T19:01:25.695Z,67.60
2019-02-24T19:03:59.049Z,67.30
2019-02-24T19:06:38.901Z,68.60
2019-02-24T19:09:07.889Z,68.70
2019-02-24T19:11:41.481Z,68.70
2019-02-24T19:14:14.703Z,69.00
2019-02-24T19:16:49.173Z,68.80
2019-02-24T19:19:25.585Z,70.20
2019-02-24T19:22:00.915Z,69.80
2019-02-24T19:24:37.236Z,70.30
2019-02-24T19:27:10.415Z,70.90
2019-02-24T19:29:43.636Z,70.40
2019-02-24T19:32:16.836Z,70.40
2019-02-24T19:34:50.076Z,70.80
2019-02-24T19:37:24.569Z,70.50
2019-02-24T19:39:57.721Z,70.70
2019-02-24T19:42:30.988Z,70.80
2019-02-24T19:45:05.135Z,71.60
2019-02-24T19:47:38.504Z,71.90
2019-02-24T19:50:16.811Z,73.30
2019-02-24T19:52:50.072Z,72.40
2019-02-24T19:55:24.681Z,73.70
2019-02-24T19:57:58.045Z,75.10
2019-02-24T20:00:31.194Z,73.40
2019-02-24T20:03:04.459Z,73.70
2019-02-24T20:05:37.751Z,75.00
2019-02-24T20:08:10.958Z,74.40
2019-02-24T20:10:44.202Z,75.50
2019-02-24T20:13:17.478Z,75.50
2019-02-24T20:15:50.721Z,75.90
2019-02-24T20:18:29.263Z,75.70
2019-02-24T20:21:03.231Z,77.10
2019-02-24T20:23:37.591Z,75.90
2019-02-24T20:26:11.704Z,77.00
2019-02-24T20:28:45.869Z,76.60
2019-02-24T20:31:19.112Z,78.50
2019-02-24T20:33:52.404Z,77.50
2019-02-24T20:36:25.726Z,80.00
2019-02-24T20:38:59.017Z,76.70
2019-02-24T20:41:32.248Z,77.60
2019-02-24T20:44:05.959Z,77.40
2019-02-24T20:46:39.234Z,77.20
2019-02-24T20:49:12.493Z,77.60
2019-02-24T20:51:47.205Z,77.10
2019-02-24T20:54:20.477Z,76.90
2019-02-24T20:56:54.883Z,77.30
2019-02-24T20:59:28.183Z,76.80
2019-02-24T21:02:01.422Z,77.30
2019-02-24T21:04:34.787Z,77.40
2019-02-24T21:07:08.044Z,77.30
2019-02-24T21:09:43.186Z,77.70
2019-02-24T21:12:16.126Z,77.80
2019-02-24T21:14:49.471Z,78.10
2019-02-24T21:17:22.685Z,77.80
2019-02-24T21:19:56.091Z,77.80
2019-02-24T21:22:29.481Z,77.50
2019-02-24T21:25:02.692Z,77.40
2019-02-24T21:27:35.888Z,78.60
2019-02-24T21:30:16.639Z,78.10
2019-02-24T21:32:49.830Z,77.90
2019-02-24T21:35:23.165Z,77.90
2019-02-24T21:37:56.423Z,79.10
2019-02-24T21:40:29.607Z,79.10
2019-02-24T21:43:02.889Z,79.10
2019-02-24T21:45:36.127Z,79.10
2019-02-24T21:48:15.872Z,79.00
2019-02-24T21:50:49.120Z,79.50
2019-02-24T21:53:23.362Z,79.70
2019-02-24T21:55:56.632Z,80.50
2019-02-24T21:58:30.016Z,79.60
2019-02-24T22:01:03.408Z,79.40
2019-02-24T22:03:36.689Z,79.70
2019-02-24T22:06:09.919Z,80.10
2019-02-24T22:08:43.287Z,81.00
2019-02-24T22:11:16.468Z,80.80
2019-02-24T22:13:50.710Z,81.40
2019-02-24T22:16:23.976Z,81.50
2019-02-24T22:18:57.268Z,81.60
2019-02-24T22:21:30.536Z,82.10
2019-02-24T22:24:03.941Z,82.30
2019-02-24T22:27:26.040Z,82.10
2019-02-24T22:29:59.342Z,81.60
2019-02-24T22:32:32.525Z,82.10
2019-02-24T22:35:07.418Z,82.50
2019-02-24T22:37:40.674Z,82.80
2019-02-24T22:40:16.708Z,82.70
2019-02-24T22:42:50.133Z,82.90
2019-02-24T22:45:24.630Z,82.90
2019-02-24T22:47:57.944Z,82.90
2019-02-24T22:50:31.489Z,83.30
2019-02-24T22:53:04.677Z,83.00
2019-02-24T22:58:46.859Z,82.80
2019-02-24T23:01:23.779Z,82.60
2019-02-24T23:04:11.001Z,83.50
2019-02-24T23:06:44.161Z,82.30
2019-02-24T23:09:19.158Z,82.80
2019-02-24T23:11:52.401Z,82.40
2019-02-24T23:14:27.813Z,81.70
2019-02-24T23:17:01.149Z,82.00
2019-02-24T23:19:34.549Z,81.60
2019-02-24T23:25:11.096Z,81.20
2019-02-24T23:27:44.359Z,81.30
2019-02-24T23:30:17.678Z,80.80
2019-02-24T23:32:50.910Z,80.80
2019-02-24T23:35:24.303Z,79.70
2019-02-24T23:37:58.871Z,79.90
2019-02-24T23:40:32.177Z,79.70
2019-02-24T23:43:05.720Z,80.00
2019-02-24T23:45:39.123Z,80.30
2019-02-24T23:48:14.082Z,80.00
2019-02-24T23:50:47.298Z,80.00
2019-02-24T23:53:20.667Z,80.30
2019-02-24T23:55:53.890Z,79.30
2019-02-24T23:58:28.860Z,79.60
